Time;durP1;ratioP1;P1;durP2;ratioP2;P2;SDS_P1;SDS_P2;PMS_P1;PMS_P2;Temp;Humidity;BMP_temperature;BMP_pressure;BME280_temperature;BME280_humidity;BME280_pressure;Samples;Min_cycle;Max_cycle;Signal;HPM_P1;HPM_P2
2024/01/27 00:00:40;;;;;;;8.07;4.80;;;3.20;99.90;;;;;;2064020;28;20268;-63
2024/01/27 00:01:41;;;;;;;10.37;4.60;;;3.20;99.90;;;;;;2070495;28;20236;-63
2024/01/27 00:02:43;;;;;;;8.70;4.60;;;3.10;99.90;;;;;;2070273;28;20727;-62
2024/01/27 00:03:44;;;;;;;10.23;5.20;;;3.10;99.90;;;;;;2070091;28;20263;-63
2024/01/27 00:04:44;;;;;;;9.60;4.10;;;3.00;99.90;;;;;;2067962;28;20251;-63
2024/01/27 00:05:45;;;;;;;8.10;4.93;;;3.10;99.90;;;;;;2071244;28;20275;-63
2024/01/27 00:06:47;;;;;;;8.93;4.90;;;3.10;99.90;;;;;;2069852;28;20236;-63
2024/01/27 00:07:47;;;;;;;7.87;4.50;;;3.10;99.90;;;;;;2070101;28;20221;-64
2024/01/27 00:08:48;;;;;;;7.03;4.13;;;3.10;99.90;;;;;;2070863;28;20236;-63
2024/01/27 00:09:49;;;;;;;8.27;4.50;;;3.00;99.90;;;;;;2061192;28;20244;-64
2024/01/27 00:10:49;;;;;;;9.47;4.70;;;2.90;99.90;;;;;;2053618;28;20695;-63
2024/01/27 00:11:50;;;;;;;6.13;3.73;;;2.90;99.90;;;;;;2059627;28;20222;-63
2024/01/27 00:12:51;;;;;;;12.90;4.47;;;3.00;99.90;;;;;;2071222;28;20225;-63
2024/01/27 00:13:52;;;;;;;10.82;4.68;;;2.90;99.90;;;;;;2058395;28;20233;-64
2024/01/27 00:14:53;;;;;;;10.20;4.60;;;3.00;99.90;;;;;;2056774;28;20225;-63
2024/01/27 00:15:54;;;;;;;7.50;4.70;;;3.10;99.90;;;;;;2059239;28;20717;-64
2024/01/27 00:16:55;;;;;;;9.85;4.82;;;3.00;99.90;;;;;;2061403;28;20235;-64
2024/01/27 00:17:55;;;;;;;8.50;4.17;;;3.00;99.90;;;;;;2061413;28;20243;-63
2024/01/27 00:18:56;;;;;;;11.57;4.73;;;2.90;99.90;;;;;;2070920;28;20229;-63
2024/01/27 00:19:57;;;;;;;11.80;4.53;;;2.90;99.90;;;;;;2070047;28;20353;-63
2024/01/27 00:20:57;;;;;;;9.40;5.37;;;2.90;99.90;;;;;;2070544;28;20717;-64
2024/01/27 00:21:58;;;;;;;11.53;4.67;;;2.80;99.90;;;;;;2070012;28;20229;-63
2024/01/27 00:22:59;;;;;;;9.03;4.80;;;2.80;99.90;;;;;;2069940;28;20240;-63
2024/01/27 00:24:03;;;;;;;8.83;4.50;;;2.80;99.90;;;;;;2070113;28;20224;-64
2024/01/27 00:25:04;;;;;;;9.73;4.95;;;2.80;99.90;;;;;;2060705;28;20687;-63
2024/01/27 00:26:05;;;;;;;11.27;4.70;;;2.70;99.90;;;;;;2062400;28;20196;-62
2024/01/27 00:27:05;;;;;;;6.50;4.13;;;2.70;99.90;;;;;;2066388;28;20239;-61
2024/01/27 00:28:06;;;;;;;10.63;4.60;;;2.60;99.90;;;;;;2061073;28;20193;-60
2024/01/27 00:29:07;;;;;;;8.23;4.60;;;2.70;99.90;;;;;;2061277;28;20272;-62
2024/01/27 00:30:08;;;;;;;6.90;4.50;;;2.70;99.90;;;;;;2069885;28;20193;-62
2024/01/27 00:31:09;;;;;;;10.70;5.38;;;2.70;99.90;;;;;;2054827;28;20308;-63
2024/01/27 00:32:09;;;;;;;10.25;5.18;;;2.70;99.90;;;;;;2054358;28;20253;-62
2024/01/27 00:33:10;;;;;;;8.97;4.17;;;2.80;99.90;;;;;;2066680;28;20178;-63
2024/01/27 00:34:11;;;;;;;9.80;4.97;;;2.80;99.90;;;;;;2070093;28;20188;-66
2024/01/27 00:35:14;;;;;;;9.00;4.87;;;2.80;99.90;;;;;;2060818;28;20233;-63
2024/01/27 00:36:15;;;;;;;7.90;4.32;;;2.80;99.90;;;;;;2061705;28;20188;-63
2024/01/27 00:37:16;;;;;;;9.13;5.40;;;2.80;99.90;;;;;;2061672;28;20189;-64
2024/01/27 00:38:17;;;;;;;8.77;5.23;;;2.80;99.90;;;;;;2060959;28;20193;-64
2024/01/27 00:39:18;;;;;;;8.30;5.27;;;2.80;99.90;;;;;;2069742;28;20910;-64
2024/01/27 00:40:19;;;;;;;9.20;5.22;;;2.90;99.90;;;;;;2061805;28;20198;-64
2024/01/27 00:41:20;;;;;;;10.67;5.73;;;2.80;99.90;;;;;;2061109;28;20201;-64
2024/01/27 00:42:23;;;;;;;8.27;4.30;;;2.80;99.90;;;;;;2068533;28;21047;-64
2024/01/27 00:43:24;;;;;;;8.20;5.10;;;2.80;99.90;;;;;;2069788;28;20263;-62
2024/01/27 00:44:25;;;;;;;9.87;4.77;;;2.70;99.90;;;;;;2070956;28;20647;-64
2024/01/27 00:45:27;;;;;;;7.30;4.27;;;2.60;99.90;;;;;;2061253;28;20240;-64
2024/01/27 00:46:28;;;;;;;8.50;5.30;;;2.60;99.90;;;;;;2061500;28;20235;-64
2024/01/27 00:47:28;;;;;;;10.90;6.00;;;2.50;99.90;;;;;;2068909;28;20256;-62
2024/01/27 00:48:29;;;;;;;11.47;5.63;;;2.40;99.90;;;;;;2061764;28;20230;-63
2024/01/27 00:49:30;;;;;;;10.37;6.03;;;2.40;99.90;;;;;;2061272;28;20733;-63
2024/01/27 00:50:30;;;;;;;7.70;5.10;;;2.40;99.90;;;;;;2061123;28;20232;-63
2024/01/27 00:51:32;;;;;;;7.23;4.47;;;2.40;99.90;;;;;;2061570;28;20276;-62
2024/01/27 00:52:32;;;;;;;10.30;4.78;;;2.40;99.90;;;;;;2060128;28;20314;-62
2024/01/27 00:53:33;;;;;;;9.33;4.80;;;2.30;99.90;;;;;;2052867;28;20352;-62
2024/01/27 00:54:34;;;;;;;10.63;4.50;;;2.40;99.90;;;;;;2061574;28;20237;-63
2024/01/27 00:55:35;;;;;;;11.30;4.93;;;2.40;99.90;;;;;;2069240;28;20246;-63
2024/01/27 00:56:35;;;;;;;10.73;4.60;;;2.50;99.90;;;;;;2061274;28;20984;-64
2024/01/27 00:57:38;;;;;;;9.43;5.20;;;2.50;99.90;;;;;;2067139;28;20311;-63
2024/01/27 00:58:39;;;;;;;7.72;4.80;;;2.40;99.90;;;;;;2062822;28;20295;-61
2024/01/27 00:59:40;;;;;;;7.73;4.30;;;2.50;99.90;;;;;;2062410;28;20316;-63
2024/01/27 01:00:40;;;;;;;6.97;4.00;;;2.40;99.90;;;;;;2070317;28;20229;-62
2024/01/27 01:01:41;;;;;;;6.70;4.67;;;2.40;99.90;;;;;;2069576;28;20294;-61
2024/01/27 01:02:42;;;;;;;12.00;4.90;;;2.30;99.90;;;;;;2069863;28;20229;-62
2024/01/27 01:03:43;;;;;;;10.37;5.13;;;2.30;99.90;;;;;;2069974;28;20228;-62
2024/01/27 01:04:44;;;;;;;8.77;4.93;;;2.20;99.90;;;;;;2070722;28;20221;-61
2024/01/27 01:05:45;;;;;;;9.82;5.10;;;2.20;99.90;;;;;;2070941;28;20237;-62
2024/01/27 01:06:46;;;;;;;9.63;4.93;;;2.20;99.90;;;;;;2071606;28;20241;-62
2024/01/27 01:07:46;;;;;;;11.77;5.63;;;2.20;99.90;;;;;;2070591;28;20606;-61
2024/01/27 01:08:47;;;;;;;9.97;5.60;;;2.10;99.90;;;;;;2070042;28;20239;-61
2024/01/27 01:09:48;;;;;;;10.83;4.80;;;2.00;99.90;;;;;;2070526;28;20236;-61
2024/01/27 01:10:49;;;;;;;8.20;5.07;;;1.90;99.90;;;;;;2070715;28;20239;-61
2024/01/27 01:11:49;;;;;;;9.53;5.37;;;1.80;99.90;;;;;;2062562;28;20531;-61
2024/01/27 01:12:50;;;;;;;13.17;5.53;;;1.80;99.90;;;;;;2062024;28;20226;-62
2024/01/27 01:13:51;;;;;;;8.80;5.43;;;1.70;99.90;;;;;;2061551;28;20298;-62
2024/01/27 01:14:52;;;;;;;12.43;5.53;;;1.70;99.90;;;;;;2070091;28;20635;-61
2024/01/27 01:15:53;;;;;;;10.68;5.07;;;1.80;99.90;;;;;;2071370;28;20697;-61
2024/01/27 01:16:53;;;;;;;10.50;4.80;;;1.70;99.90;;;;;;2070771;28;20279;-61
2024/01/27 01:17:54;;;;;;;12.87;5.40;;;1.70;99.90;;;;;;2071339;28;20229;-61
2024/01/27 01:18:55;;;;;;;12.03;4.70;;;1.70;99.90;;;;;;2069998;28;20270;-61
2024/01/27 01:19:55;;;;;;;10.53;4.60;;;1.80;99.90;;;;;;2061706;28;20288;-61
2024/01/27 01:20:56;;;;;;;6.93;4.43;;;1.70;99.90;;;;;;2062165;28;20267;-61
2024/01/27 01:21:57;;;;;;;10.97;5.03;;;1.70;99.90;;;;;;2070414;28;20225;-61
2024/01/27 01:22:58;;;;;;;12.00;4.50;;;1.60;99.90;;;;;;2071667;28;20238;-61
2024/01/27 01:23:58;;;;;;;10.63;4.78;;;1.70;99.90;;;;;;2061272;28;20714;-61
2024/01/27 01:24:59;;;;;;;7.23;4.67;;;1.60;99.90;;;;;;2061888;28;20367;-60
2024/01/27 01:26:00;;;;;;;8.83;5.10;;;1.40;99.90;;;;;;2061782;28;20255;-61
2024/01/27 01:27:00;;;;;;;10.20;5.40;;;1.40;99.90;;;;;;2060829;28;20237;-60
2024/01/27 01:28:01;;;;;;;13.50;5.40;;;1.40;99.90;;;;;;2059916;28;20196;-61
2024/01/27 01:29:02;;;;;;;9.20;4.77;;;1.30;99.90;;;;;;2053802;28;20191;-60
2024/01/27 01:30:03;;;;;;;13.27;5.30;;;1.40;99.90;;;;;;2059437;28;20180;-62
2024/01/27 01:31:07;;;;;;;10.50;5.38;;;1.40;99.90;;;;;;2061109;28;20286;-61
2024/01/27 01:32:08;;;;;;;8.80;5.18;;;1.30;99.90;;;;;;2053725;28;20787;-61
2024/01/27 01:33:11;;;;;;;7.17;4.30;;;1.30;99.90;;;;;;2058851;28;20289;-61
2024/01/27 01:34:11;;;;;;;9.75;4.53;;;1.30;99.90;;;;;;2064740;28;20451;-60
2024/01/27 01:35:12;;;;;;;10.00;5.50;;;1.20;99.90;;;;;;2070456;28;20617;-61
2024/01/27 01:36:13;;;;;;;10.63;5.40;;;1.10;99.90;;;;;;2070820;28;20193;-61
2024/01/27 01:37:14;;;;;;;11.60;5.50;;;1.20;99.90;;;;;;2070146;28;20217;-60
2024/01/27 01:38:14;;;;;;;6.97;4.80;;;1.10;99.90;;;;;;2070438;28;20210;-61
2024/01/27 01:39:15;;;;;;;8.57;5.10;;;1.10;99.90;;;;;;2070003;28;20269;-61
2024/01/27 01:40:16;;;;;;;7.50;5.00;;;1.00;99.90;;;;;;2070706;28;20261;-61
2024/01/27 01:41:17;;;;;;;10.17;6.10;;;1.00;99.90;;;;;;2070402;28;20225;-61
2024/01/27 01:42:18;;;;;;;15.13;6.13;;;1.00;99.90;;;;;;2071499;28;20685;-62
2024/01/27 01:43:18;;;;;;;14.00;6.95;;;1.00;99.90;;;;;;2070467;28;20182;-62
2024/01/27 01:44:19;;;;;;;11.63;6.47;;;1.20;99.90;;;;;;2060925;28;20196;-61
2024/01/27 01:45:20;;;;;;;15.97;7.07;;;1.30;99.90;;;;;;2061787;28;20179;-61
2024/01/27 01:46:23;;;;;;;31.03;9.73;;;1.20;99.90;;;;;;2071228;28;20232;-62
2024/01/27 01:47:25;;;;;;;14.07;7.15;;;1.20;99.90;;;;;;2061754;28;20231;-61
2024/01/27 01:48:26;;;;;;;30.35;10.32;;;1.20;99.90;;;;;;2061845;28;20857;-61
2024/01/27 01:49:27;;;;;;;29.60;9.55;;;1.30;99.90;;;;;;2061681;28;20662;-62
2024/01/27 01:50:27;;;;;;;137.93;18.80;;;1.30;99.90;;;;;;2068437;28;20225;-61
2024/01/27 01:51:28;;;;;;;56.93;14.67;;;1.40;99.90;;;;;;2070983;28;20223;-61
2024/01/27 01:52:29;;;;;;;25.17;8.80;;;1.50;99.90;;;;;;2070568;28;20264;-62
2024/01/27 01:53:30;;;;;;;31.07;9.43;;;1.50;99.90;;;;;;2069941;28;20226;-62
2024/01/27 01:54:32;;;;;;;35.10;10.27;;;1.50;99.90;;;;;;2070396;28;20221;-62
2024/01/27 01:55:33;;;;;;;34.22;9.38;;;1.50;99.90;;;;;;2070791;28;20724;-62
2024/01/27 01:56:35;;;;;;;91.85;14.77;;;1.50;99.90;;;;;;2062816;28;20290;-62
2024/01/27 01:57:36;;;;;;;105.80;18.45;;;1.50;99.90;;;;;;2061789;28;20239;-61
2024/01/27 01:58:37;;;;;;;133.93;21.08;;;1.60;99.90;;;;;;2070533;28;20240;-62
2024/01/27 01:59:40;;;;;;;99.10;16.93;;;1.60;99.90;;;;;;2070399;28;20239;-62
2024/01/27 02:00:41;;;;;;;75.28;16.75;;;1.70;99.90;;;;;;2069743;28;20623;-62
2024/01/27 02:01:42;;;;;;;58.17;10.83;;;1.80;99.90;;;;;;2069044;28;20225;-61
2024/01/27 02:02:45;;;;;;;144.13;19.73;;;1.80;99.90;;;;;;2068820;28;20370;-62
2024/01/27 02:03:52;;;;;;;173.75;18.88;;;1.80;99.90;;;;;;2070271;28;20232;-61
2024/01/27 02:04:53;;;;;;;55.55;11.95;;;1.80;99.90;;;;;;2069808;28;20230;-61
2024/01/27 02:05:55;;;;;;;167.63;21.33;;;1.70;99.90;;;;;;2070627;28;20310;-61
2024/01/27 02:06:56;;;;;;;47.65;9.35;;;1.70;99.90;;;;;;2062212;28;20232;-61
2024/01/27 02:07:59;;;;;;;48.50;9.87;;;1.70;99.90;;;;;;2061268;28;20591;-61
2024/01/27 02:09:00;;;;;;;22.38;7.28;;;1.70;99.90;;;;;;2068545;28;20290;-61
2024/01/27 02:10:02;;;;;;;32.23;8.17;;;1.80;99.90;;;;;;2068386;28;21572;-61
2024/01/27 02:11:03;;;;;;;37.42;9.25;;;1.80;99.90;;;;;;2068902;28;20283;-62
2024/01/27 02:12:04;;;;;;;84.83;13.07;;;1.70;99.90;;;;;;2068834;28;20178;-62
2024/01/27 02:13:22;;;;;;;62.42;12.52;;;1.70;99.90;;;;;;2069849;28;20214;-61
2024/01/27 02:14:25;;;;;;;19.33;7.97;;;1.60;99.90;;;;;;2049928;28;20730;-62
2024/01/27 02:15:26;;;;;;;22.45;7.30;;;1.60;99.90;;;;;;2053196;28;20308;-62
2024/01/27 02:16:27;;;;;;;10.32;6.25;;;1.50;99.90;;;;;;2070969;28;20230;-61
2024/01/27 02:17:27;;;;;;;9.40;6.03;;;1.60;99.90;;;;;;2069690;28;20593;-62
2024/01/27 02:18:28;;;;;;;11.53;5.73;;;1.50;99.90;;;;;;2069074;28;20231;-61
2024/01/27 02:19:29;;;;;;;13.50;6.30;;;1.50;99.90;;;;;;2059470;28;20647;-62
2024/01/27 02:20:29;;;;;;;13.70;6.70;;;1.50;99.90;;;;;;2061210;28;20361;-62
2024/01/27 02:21:30;;;;;;;14.50;6.73;;;1.40;99.90;;;;;;2057914;28;20657;-61
2024/01/27 02:22:31;;;;;;;17.33;7.60;;;1.30;99.90;;;;;;2059302;28;20230;-62
2024/01/27 02:23:31;;;;;;;12.57;6.00;;;1.40;99.90;;;;;;2068125;28;20234;-62
2024/01/27 02:24:32;;;;;;;11.23;6.43;;;1.40;99.90;;;;;;2057682;28;20217;-61
2024/01/27 02:25:33;;;;;;;10.83;6.30;;;1.30;99.90;;;;;;2060449;28;20227;-62
2024/01/27 02:26:34;;;;;;;15.07;6.70;;;1.30;99.90;;;;;;2058644;28;20957;-62
2024/01/27 02:27:34;;;;;;;12.63;6.40;;;1.20;99.90;;;;;;2060058;28;20329;-62
2024/01/27 02:28:35;;;;;;;11.40;6.00;;;1.10;99.90;;;;;;2068789;28;20541;-62
2024/01/27 02:29:36;;;;;;;14.63;6.93;;;1.10;99.90;;;;;;2068578;28;20288;-62
2024/01/27 02:30:36;;;;;;;12.03;6.67;;;1.10;99.90;;;;;;2070993;28;20234;-62
2024/01/27 02:31:37;;;;;;;11.43;5.90;;;1.10;99.90;;;;;;2060809;28;20233;-62
2024/01/27 02:32:38;;;;;;;10.13;5.80;;;1.10;99.90;;;;;;2062241;28;20294;-62
2024/01/27 02:33:39;;;;;;;11.07;6.33;;;1.10;99.90;;;;;;2060980;28;20226;-62
2024/01/27 02:34:39;;;;;;;10.50;6.13;;;1.00;99.90;;;;;;2060831;28;20227;-61
2024/01/27 02:35:40;;;;;;;13.90;7.50;;;1.00;99.90;;;;;;2070401;28;20238;-62
2024/01/27 02:36:43;;;;;;;9.90;5.80;;;1.00;99.90;;;;;;2070838;28;20273;-62
2024/01/27 02:37:43;;;;;;;10.55;5.32;;;0.90;99.90;;;;;;2070190;28;20291;-63
2024/01/27 02:38:44;;;;;;;12.63;6.20;;;0.90;99.90;;;;;;2070033;28;20232;-63
2024/01/27 02:39:45;;;;;;;15.30;6.63;;;0.90;99.90;;;;;;2069851;28;20234;-62
2024/01/27 02:40:46;;;;;;;11.90;7.05;;;0.80;99.90;;;;;;2061513;28;20237;-62
2024/01/27 02:41:47;;;;;;;15.73;7.83;;;0.80;99.90;;;;;;2060931;28;20231;-62
2024/01/27 02:42:47;;;;;;;10.00;6.07;;;0.90;99.90;;;;;;2071745;28;20276;-62
2024/01/27 02:43:48;;;;;;;11.67;6.07;;;0.90;99.90;;;;;;2062673;28;20240;-62
2024/01/27 02:44:49;;;;;;;11.20;6.70;;;0.90;99.90;;;;;;2055151;28;20337;-62
2024/01/27 02:45:49;;;;;;;11.50;5.60;;;0.90;99.90;;;;;;2062191;28;20241;-62
2024/01/27 02:46:50;;;;;;;14.00;6.50;;;1.00;99.90;;;;;;2062017;28;20251;-63
2024/01/27 02:47:50;;;;;;;8.07;5.10;;;1.00;99.90;;;;;;2053803;28;20260;-62
2024/01/27 02:48:51;;;;;;;9.97;6.37;;;1.10;99.90;;;;;;2062080;28;20681;-63
2024/01/27 02:49:52;;;;;;;12.90;6.23;;;1.00;99.90;;;;;;2070467;28;20312;-63
2024/01/27 02:50:53;;;;;;;14.43;6.73;;;1.00;99.90;;;;;;2070472;28;20705;-62
2024/01/27 02:51:53;;;;;;;9.03;5.93;;;1.00;99.90;;;;;;2069972;28;20278;-62
2024/01/27 02:52:54;;;;;;;12.40;5.70;;;1.10;99.90;;;;;;2069685;28;20257;-62
2024/01/27 02:53:55;;;;;;;11.20;5.93;;;1.00;99.90;;;;;;2069804;28;20254;-62
2024/01/27 02:54:55;;;;;;;10.13;5.10;;;1.00;99.90;;;;;;2060793;28;20569;-62
2024/01/27 02:55:56;;;;;;;8.67;5.47;;;1.00;99.90;;;;;;2053865;28;20315;-62
2024/01/27 02:56:57;;;;;;;9.60;5.53;;;0.90;99.90;;;;;;2062059;28;20257;-61
2024/01/27 02:57:57;;;;;;;10.17;5.03;;;0.90;99.90;;;;;;2070707;28;20257;-62
2024/01/27 02:58:58;;;;;;;12.30;5.70;;;0.90;99.90;;;;;;2069222;28;20857;-62
2024/01/27 02:59:59;;;;;;;14.53;6.70;;;0.90;99.90;;;;;;2059399;28;20318;-61
2024/01/27 03:00:59;;;;;;;11.47;5.77;;;0.90;99.90;;;;;;2061535;28;20242;-62
2024/01/27 03:02:00;;;;;;;11.93;6.23;;;0.90;99.90;;;;;;2071196;28;20299;-62
2024/01/27 03:03:01;;;;;;;11.23;6.00;;;0.90;99.90;;;;;;2068903;28;20401;-62
2024/01/27 03:04:01;;;;;;;10.33;5.57;;;0.90;99.90;;;;;;2070626;28;20217;-63
2024/01/27 03:05:02;;;;;;;10.07;5.47;;;0.80;99.90;;;;;;2070345;28;20574;-62
2024/01/27 03:06:04;;;;;;;10.57;5.73;;;0.90;99.90;;;;;;2070537;28;20190;-60
2024/01/27 03:07:09;;;;;;;11.23;5.82;;;0.90;99.90;;;;;;2070585;28;20189;-62
2024/01/27 03:08:10;;;;;;;10.60;5.93;;;0.80;99.90;;;;;;2057364;28;20187;-62
2024/01/27 03:09:11;;;;;;;14.53;7.30;;;0.70;99.90;;;;;;2067015;28;20677;-61
2024/01/27 03:10:12;;;;;;;12.43;7.00;;;0.50;99.90;;;;;;2070957;28;20196;-61
2024/01/27 03:11:12;;;;;;;9.43;5.77;;;0.50;99.90;;;;;;2067184;28;20209;-62
2024/01/27 03:12:15;;;;;;;13.43;6.00;;;0.60;99.90;;;;;;2069087;28;20661;-64
2024/01/27 03:13:16;;;;;;;13.07;5.18;;;0.70;99.90;;;;;;2060036;28;20182;-61
2024/01/27 03:14:16;;;;;;;12.37;5.63;;;0.70;99.90;;;;;;2061633;28;20277;-62
2024/01/27 03:15:17;;;;;;;9.87;6.10;;;0.60;99.90;;;;;;2070901;28;20186;-62
2024/01/27 03:16:19;;;;;;;11.73;5.77;;;0.60;99.90;;;;;;2059476;28;20313;-61
2024/01/27 03:17:20;;;;;;;9.90;5.35;;;0.70;99.90;;;;;;2061610;28;20178;-62
2024/01/27 03:18:21;;;;;;;10.40;6.03;;;0.70;99.90;;;;;;2061303;28;20230;-62
2024/01/27 03:19:22;;;;;;;9.20;6.03;;;0.60;99.90;;;;;;2061657;28;20230;-62
2024/01/27 03:20:22;;;;;;;10.13;5.80;;;0.70;99.90;;;;;;2060521;28;20227;-62
2024/01/27 03:21:23;;;;;;;10.67;5.07;;;0.60;99.90;;;;;;2059832;28;20812;-62
2024/01/27 03:22:23;;;;;;;12.23;5.40;;;0.60;99.90;;;;;;2060267;28;20238;-61
2024/01/27 03:23:24;;;;;;;8.07;5.23;;;0.60;99.90;;;;;;2061147;28;20226;-62
2024/01/27 03:24:25;;;;;;;10.77;5.60;;;0.70;99.90;;;;;;2069458;28;20233;-62
2024/01/27 03:25:26;;;;;;;10.50;5.70;;;0.60;99.90;;;;;;2070085;28;20613;-62
2024/01/27 03:26:27;;;;;;;9.68;5.55;;;0.70;99.90;;;;;;2061611;28;20686;-62
2024/01/27 03:27:27;;;;;;;11.03;5.77;;;0.60;99.90;;;;;;2060618;28;20227;-62
2024/01/27 03:28:28;;;;;;;12.87;5.40;;;0.60;99.90;;;;;;2061263;28;20273;-62
2024/01/27 03:29:29;;;;;;;10.10;6.10;;;0.60;99.90;;;;;;2061496;28;20234;-62
2024/01/27 03:30:29;;;;;;;12.13;6.27;;;0.50;99.90;;;;;;2069497;28;20233;-62
2024/01/27 03:31:31;;;;;;;12.97;6.00;;;0.50;99.90;;;;;;2070186;28;20232;-62
2024/01/27 03:32:32;;;;;;;12.10;6.65;;;0.50;99.90;;;;;;2070610;28;20253;-62
2024/01/27 03:33:33;;;;;;;10.00;5.43;;;0.40;99.90;;;;;;2053281;28;20267;-62
2024/01/27 03:34:33;;;;;;;12.17;6.03;;;0.50;99.90;;;;;;2052807;28;20218;-62
2024/01/27 03:35:34;;;;;;;11.90;5.80;;;0.40;99.90;;;;;;2071578;28;20233;-62
2024/01/27 03:36:35;;;;;;;11.23;5.40;;;0.40;99.90;;;;;;2070074;28;20229;-62
2024/01/27 03:37:35;;;;;;;10.97;6.10;;;0.40;99.90;;;;;;2061197;28;20726;-61
2024/01/27 03:38:37;;;;;;;11.33;6.03;;;0.40;99.90;;;;;;2060063;28;20224;-62
2024/01/27 03:39:37;;;;;;;13.23;6.75;;;0.50;99.90;;;;;;2051639;28;20231;-62
2024/01/27 03:40:38;;;;;;;10.60;6.40;;;0.50;99.90;;;;;;2051668;28;20774;-62
2024/01/27 03:41:39;;;;;;;14.23;6.17;;;0.40;99.90;;;;;;2068770;28;20336;-62
2024/01/27 03:42:39;;;;;;;9.60;6.47;;;0.40;99.90;;;;;;2070074;28;20231;-61
2024/01/27 03:43:40;;;;;;;10.03;5.27;;;0.40;99.90;;;;;;2071281;28;20316;-63
2024/01/27 03:44:41;;;;;;;12.63;6.10;;;0.30;99.90;;;;;;2070015;28;20651;-62
2024/01/27 03:45:41;;;;;;;13.13;6.73;;;0.30;99.90;;;;;;2061018;28;20231;-61
2024/01/27 03:46:42;;;;;;;9.20;5.07;;;0.30;99.90;;;;;;2061567;28;20230;-62
2024/01/27 03:47:43;;;;;;;12.63;6.50;;;0.30;99.90;;;;;;2069109;28;20236;-62
2024/01/27 03:48:43;;;;;;;10.80;5.93;;;0.30;99.90;;;;;;2069887;28;20228;-62
2024/01/27 03:49:44;;;;;;;10.03;5.30;;;0.40;99.90;;;;;;2061171;28;20265;-62
2024/01/27 03:50:45;;;;;;;12.23;6.37;;;0.40;99.90;;;;;;2055886;28;20623;-62
2024/01/27 03:51:45;;;;;;;11.37;5.90;;;0.40;99.90;;;;;;2071179;28;20752;-62
2024/01/27 03:52:46;;;;;;;10.73;5.57;;;0.40;99.90;;;;;;2061713;28;20257;-62
2024/01/27 03:53:47;;;;;;;11.07;5.60;;;0.40;99.90;;;;;;2060962;28;20260;-65
2024/01/27 03:54:48;;;;;;;9.70;5.93;;;0.40;99.90;;;;;;2069415;28;20314;-61
2024/01/27 03:55:48;;;;;;;8.60;5.63;;;0.30;99.90;;;;;;2069416;28;20328;-62
2024/01/27 03:56:49;;;;;;;8.80;5.53;;;0.30;99.90;;;;;;2068908;28;20237;-62
2024/01/27 03:57:50;;;;;;;11.97;6.80;;;0.30;99.90;;;;;;2061193;28;20233;-62
2024/01/27 03:58:50;;;;;;;9.60;5.77;;;0.20;99.90;;;;;;2061453;28;20237;-62
2024/01/27 03:59:51;;;;;;;13.10;6.37;;;0.30;99.90;;;;;;2069057;28;20717;-62
2024/01/27 04:00:52;;;;;;;10.03;5.80;;;0.20;99.90;;;;;;2065149;28;20230;-61
2024/01/27 04:01:52;;;;;;;11.10;5.40;;;0.30;99.90;;;;;;2070306;28;20230;-63
2024/01/27 04:02:53;;;;;;;9.07;5.23;;;0.20;99.90;;;;;;2071617;28;20239;-62
2024/01/27 04:03:54;;;;;;;12.20;6.13;;;0.20;99.90;;;;;;2069397;28;20263;-63
2024/01/27 04:04:54;;;;;;;6.87;4.67;;;0.30;99.90;;;;;;2071616;28;20233;-63
2024/01/27 04:05:55;;;;;;;10.27;5.33;;;0.20;99.90;;;;;;2070220;28;20319;-63
2024/01/27 04:06:56;;;;;;;8.63;5.83;;;0.20;99.90;;;;;;2070214;28;20732;-61
2024/01/27 04:07:57;;;;;;;9.13;5.53;;;0.20;99.90;;;;;;2071035;28;20682;-63
2024/01/27 04:08:57;;;;;;;9.25;5.18;;;0.10;99.90;;;;;;2060552;28;20344;-63
2024/01/27 04:09:58;;;;;;;8.67;5.60;;;0.10;99.90;;;;;;2053904;28;20289;-63
2024/01/27 04:10:59;;;;;;;8.57;5.00;;;0.00;99.90;;;;;;2061862;28;20234;-64
2024/01/27 04:11:59;;;;;;;7.93;4.43;;;0.00;99.90;;;;;;2062282;28;20306;-62
2024/01/27 04:13:00;;;;;;;12.07;5.80;;;0.00;99.90;;;;;;2062235;28;20810;-62
2024/01/27 04:14:02;;;;;;;14.73;5.97;;;0.00;99.90;;;;;;2059867;28;20266;-62
2024/01/27 04:15:02;;;;;;;9.45;5.13;;;0.10;99.90;;;;;;2061028;28;20286;-62
2024/01/27 04:16:03;;;;;;;11.93;5.33;;;0.10;99.90;;;;;;2073154;28;20668;-63
2024/01/27 04:17:04;;;;;;;8.45;5.50;;;0.00;99.90;;;;;;2073970;28;20216;-62
2024/01/27 04:18:08;;;;;;;13.45;5.57;;;0.00;99.90;;;;;;2064358;28;20550;-62
2024/01/27 04:19:08;;;;;;;10.70;6.22;;;0.00;99.90;;;;;;2053254;28;20723;-62
2024/01/27 04:20:10;;;;;;;11.20;6.03;;;0.00;99.90;;;;;;2064580;28;20179;-64
2024/01/27 04:21:11;;;;;;;11.23;6.03;;;0.00;99.90;;;;;;2067111;28;20228;-62
2024/01/27 04:22:12;;;;;;;9.87;5.13;;;0.00;99.90;;;;;;2064895;28;20205;-62
2024/01/27 04:23:12;;;;;;;8.10;4.73;;;-0.20;99.90;;;;;;2075136;28;20272;-62
2024/01/27 04:24:13;;;;;;;12.80;5.33;;;-0.20;99.90;;;;;;2063168;28;20174;-62
2024/01/27 04:25:14;;;;;;;12.90;5.90;;;-0.10;99.90;;;;;;2059632;28;20190;-62
2024/01/27 04:26:14;;;;;;;8.70;5.00;;;-0.10;99.90;;;;;;2060368;28;20558;-63
2024/01/27 04:27:15;;;;;;;10.43;5.10;;;-0.10;99.90;;;;;;2061389;28;20232;-63
2024/01/27 04:28:16;;;;;;;11.67;4.77;;;-0.10;99.90;;;;;;2055682;28;20262;-63
2024/01/27 04:29:16;;;;;;;9.03;5.07;;;0.00;99.90;;;;;;2061340;28;20795;-64
2024/01/27 04:30:17;;;;;;;12.50;6.03;;;0.00;99.90;;;;;;2060948;28;20178;-62
2024/01/27 04:31:18;;;;;;;9.37;4.80;;;0.00;99.90;;;;;;2060791;28;20682;-63
2024/01/27 04:32:19;;;;;;;9.27;5.10;;;0.00;99.90;;;;;;2070539;28;20178;-61
2024/01/27 04:33:19;;;;;;;11.90;5.97;;;0.00;99.90;;;;;;2069719;28;20602;-62
2024/01/27 04:34:20;;;;;;;12.83;6.03;;;-0.10;99.90;;;;;;2071036;28;20185;-63
2024/01/27 04:35:21;;;;;;;9.77;5.13;;;-0.10;99.90;;;;;;2070099;28;20376;-62
2024/01/27 04:36:29;;;;;;;9.40;5.33;;;-0.10;99.90;;;;;;2069837;28;20816;-62
2024/01/27 04:37:29;;;;;;;7.95;4.78;;;-0.10;99.90;;;;;;2060600;28;20661;-62
2024/01/27 04:38:30;;;;;;;11.23;5.77;;;-0.10;99.90;;;;;;2061690;28;20313;-63
2024/01/27 04:39:31;;;;;;;13.73;5.10;;;-0.10;99.90;;;;;;2069886;28;20260;-62
2024/01/27 04:40:32;;;;;;;8.90;5.03;;;-0.10;99.90;;;;;;2060072;28;20328;-62
2024/01/27 04:41:33;;;;;;;11.10;5.40;;;-0.10;99.90;;;;;;2062032;28;20226;-62
2024/01/27 04:42:34;;;;;;;9.40;5.63;;;-0.10;99.90;;;;;;2061199;28;20301;-63
2024/01/27 04:43:35;;;;;;;9.25;4.60;;;-0.10;99.90;;;;;;2060145;28;20234;-62
2024/01/27 04:44:41;;;;;;;8.33;5.13;;;-0.10;99.90;;;;;;2060181;28;20802;-63
2024/01/27 04:45:42;;;;;;;8.75;5.25;;;-0.10;99.90;;;;;;2062871;28;20361;-62
2024/01/27 04:46:43;;;;;;;8.40;4.20;;;-0.10;99.90;;;;;;2070281;28;20221;-62
2024/01/27 04:47:44;;;;;;;12.03;5.73;;;-0.20;99.90;;;;;;2067504;28;20222;-61
2024/01/27 04:48:44;;;;;;;9.53;5.33;;;-0.10;99.90;;;;;;2071785;28;20229;-63
2024/01/27 04:49:45;;;;;;;8.87;4.97;;;-0.10;99.90;;;;;;2071040;28;20360;-63
2024/01/27 04:50:46;;;;;;;10.40;5.20;;;-0.20;99.90;;;;;;2068736;28;20237;-63
2024/01/27 04:51:47;;;;;;;10.52;5.15;;;-0.30;99.90;;;;;;2062006;28;20225;-63
2024/01/27 04:52:47;;;;;;;8.73;4.90;;;-0.30;99.90;;;;;;2054242;28;20226;-63
2024/01/27 04:53:48;;;;;;;10.73;6.10;;;-0.30;99.90;;;;;;2053610;28;21107;-63
2024/01/27 04:54:49;;;;;;;10.93;5.30;;;-0.30;99.90;;;;;;2063857;28;20237;-63
2024/01/27 04:55:50;;;;;;;10.53;4.87;;;-0.40;99.90;;;;;;2072529;28;20334;-63
2024/01/27 04:56:50;;;;;;;9.10;5.13;;;-0.40;99.90;;;;;;2070053;28;20689;-64
2024/01/27 04:57:51;;;;;;;11.00;5.17;;;-0.40;99.90;;;;;;2066570;28;20587;-63
2024/01/27 04:58:52;;;;;;;11.20;5.23;;;-0.40;99.90;;;;;;2069909;28;20224;-64
2024/01/27 04:59:52;;;;;;;12.83;5.33;;;-0.50;99.90;;;;;;2069781;28;20229;-64
2024/01/27 05:00:53;;;;;;;10.50;4.83;;;-0.50;99.90;;;;;;2068988;28;20229;-63
2024/01/27 05:01:54;;;;;;;10.77;4.83;;;-0.50;99.90;;;;;;2060234;28;20689;-64
2024/01/27 05:02:55;;;;;;;9.40;5.63;;;-0.50;99.90;;;;;;2053938;28;20230;-63
2024/01/27 05:03:56;;;;;;;7.27;4.30;;;-0.60;99.90;;;;;;2060204;28;21010;-64
2024/01/27 05:04:56;;;;;;;10.77;5.70;;;-0.60;99.90;;;;;;2069397;28;20553;-62
2024/01/27 05:05:57;;;;;;;6.47;3.77;;;-0.60;99.90;;;;;;2069246;28;20372;-62
2024/01/27 05:06:58;;;;;;;8.20;5.20;;;-0.50;99.90;;;;;;2069299;28;20318;-63
2024/01/27 05:07:58;;;;;;;8.43;3.97;;;-0.50;99.90;;;;;;2070840;28;20835;-63
2024/01/27 05:08:59;;;;;;;7.03;4.73;;;-0.50;99.90;;;;;;2060219;28;20258;-62
2024/01/27 05:10:00;;;;;;;7.90;4.50;;;-0.50;99.90;;;;;;2060775;28;20234;-63
2024/01/27 05:11:01;;;;;;;8.00;4.75;;;-0.60;99.90;;;;;;2067510;28;20316;-62
2024/01/27 05:12:02;;;;;;;7.07;4.70;;;-0.60;99.90;;;;;;2072481;28;20189;-61
2024/01/27 05:13:03;;;;;;;9.10;4.78;;;-0.60;99.90;;;;;;2072118;28;20189;-61
2024/01/27 05:14:04;;;;;;;8.70;4.87;;;-0.50;99.90;;;;;;2060623;28;20237;-62
2024/01/27 05:15:05;;;;;;;7.80;4.80;;;-0.50;99.90;;;;;;2052527;28;20222;-62
2024/01/27 05:16:06;;;;;;;10.77;4.63;;;-0.50;99.90;;;;;;2060938;28;20312;-62
2024/01/27 05:17:06;;;;;;;9.85;4.65;;;-0.50;99.90;;;;;;2069120;28;20232;-62
2024/01/27 05:18:07;;;;;;;7.63;4.97;;;-0.50;99.90;;;;;;2067924;28;20730;-63